createdAt,value
2023-04-02T00:00:33.699Z,99.99
2023-04-02T00:01:33.673Z,99.99
2023-04-02T00:02:33.702Z,99.99
2023-04-02T00:03:33.691Z,99.99
2023-04-02T00:04:33.795Z,99.99
2023-04-02T00:05:33.831Z,99.99
2023-04-02T00:06:33.620Z,99.99
2023-04-02T00:07:33.596Z,99.99
2023-04-02T00:08:33.601Z,99.99
2023-04-02T00:09:33.673Z,99.99
2023-04-02T00:10:33.549Z,99.99
2023-04-02T00:11:33.551Z,99.99
2023-04-02T00:12:33.620Z,99.99
2023-04-02T00:13:33.555Z,99.99
2023-04-02T00:14:33.612Z,99.99
2023-04-02T00:15:33.813Z,99.99
2023-04-02T00:16:33.544Z,99.99
2023-04-02T00:17:33.486Z,99.99
2023-04-02T00:18:33.570Z,99.99
2023-04-02T00:19:33.502Z,99.99
2023-04-02T00:20:33.440Z,99.99
2023-04-02T00:21:33.434Z,99.99
2023-04-02T00:22:33.405Z,99.99
2023-04-02T00:23:33.413Z,99.99
2023-04-02T00:24:33.445Z,99.99
2023-04-02T00:25:33.571Z,99.99
2023-04-02T00:26:33.386Z,99.99
2023-04-02T00:27:33.393Z,99.99
2023-04-02T00:28:33.350Z,99.99
2023-04-02T00:29:33.387Z,99.99
2023-04-02T00:30:33.334Z,99.99
2023-04-02T00:31:33.345Z,99.99
2023-04-02T00:32:33.356Z,99.99
2023-04-02T00:33:33.279Z,99.99
2023-04-02T00:34:33.322Z,99.99
2023-04-02T00:35:33.572Z,99.99
2023-04-02T00:36:33.277Z,99.99
2023-04-02T00:37:33.263Z,99.99
2023-04-02T00:38:33.232Z,99.99
2023-04-02T00:39:33.280Z,99.99
2023-04-02T00:40:33.240Z,99.99
2023-04-02T00:41:33.217Z,99.99
2023-04-02T00:42:33.188Z,99.99
2023-04-02T00:43:33.176Z,99.99
2023-04-02T00:44:33.197Z,99.99
2023-04-02T00:45:33.461Z,99.99
2023-04-02T00:46:33.149Z,99.99
2023-04-02T00:47:33.166Z,99.99
2023-04-02T00:48:33.115Z,99.99
2023-04-02T00:49:33.142Z,99.99
2023-04-02T00:50:33.109Z,99.99
2023-04-02T00:51:33.090Z,99.99
2023-04-02T00:52:33.080Z,99.99
2023-04-02T00:53:33.051Z,99.99
2023-04-02T00:54:33.090Z,99.99
2023-04-02T00:55:33.232Z,99.99
2023-04-02T00:56:33.021Z,99.99
2023-04-02T00:57:33.087Z,99.99
2023-04-02T00:58:33.001Z,99.99
2023-04-02T00:59:33.027Z,99.99
2023-04-02T01:00:32.957Z,99.99
2023-04-02T01:01:33.029Z,99.99
2023-04-02T01:02:33.066Z,99.99
2023-04-02T01:03:33.139Z,99.99
2023-04-02T01:04:32.969Z,99.99
2023-04-02T01:05:33.189Z,99.99
2023-04-02T01:06:32.904Z,99.99
2023-04-02T01:07:32.905Z,99.99
2023-04-02T01:08:32.883Z,99.99
2023-04-02T01:09:32.942Z,99.99
2023-04-02T01:10:32.865Z,99.99
2023-04-02T01:11:32.841Z,99.99
2023-04-02T01:12:32.829Z,99.99
2023-04-02T01:13:32.825Z,99.99
2023-04-02T01:14:32.940Z,99.99
2023-04-02T01:15:32.946Z,99.99
2023-04-02T01:16:32.951Z,99.99
2023-04-02T01:17:32.802Z,99.99
2023-04-02T01:18:32.784Z,99.99
2023-04-02T01:19:32.799Z,99.99
2023-04-02T01:20:32.737Z,99.99
2023-04-02T01:21:32.742Z,99.99
2023-04-02T01:22:32.700Z,99.99
2023-04-02T01:23:32.699Z,99.99
2023-04-02T01:24:32.730Z,99.99
2023-04-02T01:25:32.696Z,99.99
2023-04-02T01:26:32.778Z,99.99
2023-04-02T01:27:32.647Z,99.99
2023-04-02T01:28:32.664Z,99.99
2023-04-02T01:29:32.674Z,99.99
2023-04-02T01:30:32.624Z,99.99
2023-04-02T01:31:32.661Z,99.99
2023-04-02T01:32:32.626Z,99.99
2023-04-02T01:33:32.598Z,99.99
2023-04-02T01:34:32.634Z,99.99
2023-04-02T01:35:32.778Z,99.99
2023-04-02T01:36:32.590Z,99.99
2023-04-02T01:37:32.553Z,99.99
2023-04-02T01:38:32.519Z,99.99
2023-04-02T01:39:32.563Z,99.99
2023-04-02T01:40:32.513Z,99.99
2023-04-02T01:41:32.543Z,99.99
2023-04-02T01:42:32.513Z,99.99
2023-04-02T01:43:32.499Z,99.99
2023-04-02T01:44:32.546Z,99.99
2023-04-02T01:45:32.843Z,99.99
2023-04-02T01:46:32.524Z,99.99
2023-04-02T01:47:32.478Z,99.99
2023-04-02T01:48:32.434Z,99.99
2023-04-02T01:49:32.412Z,99.99
2023-04-02T01:50:32.439Z,99.99
2023-04-02T01:51:32.375Z,99.99
2023-04-02T01:52:32.392Z,99.99
2023-04-02T01:53:32.371Z,99.99
2023-04-02T01:54:32.349Z,99.99
2023-04-02T01:55:32.592Z,99.99
2023-04-02T01:56:32.322Z,99.99
2023-04-02T01:57:32.345Z,99.99
2023-04-02T01:58:32.321Z,99.99
2023-04-02T01:59:32.311Z,99.99
2023-04-02T02:00:32.377Z,99.99
2023-04-02T02:01:32.292Z,99.99
2023-04-02T02:02:32.325Z,99.99
2023-04-02T02:03:32.250Z,99.99
2023-04-02T02:04:32.282Z,99.99
2023-04-02T02:05:32.415Z,99.99
2023-04-02T02:06:32.227Z,99.99
2023-04-02T02:07:32.215Z,99.99
2023-04-02T02:08:32.210Z,99.99
2023-04-02T02:09:32.198Z,99.99
2023-04-02T02:10:32.224Z,99.99
2023-04-02T02:11:32.172Z,99.99
2023-04-02T02:12:32.150Z,99.99
2023-04-02T02:13:32.172Z,99.99
2023-04-02T02:14:32.128Z,99.99
2023-04-02T02:15:32.181Z,99.99
2023-04-02T02:16:32.219Z,99.99
2023-04-02T02:17:32.153Z,99.99
2023-04-02T02:18:32.101Z,99.99
2023-04-02T02:19:32.075Z,99.99
2023-04-02T02:20:32.098Z,99.99
2023-04-02T02:21:32.055Z,99.99
2023-04-02T02:22:32.044Z,99.99
2023-04-02T02:23:32.025Z,99.99
2023-04-02T02:24:32.050Z,99.99
2023-04-02T02:25:32.178Z,99.99
2023-04-02T02:26:32.010Z,99.99
2023-04-02T02:27:32.031Z,99.99
2023-04-02T02:28:31.963Z,99.99
2023-04-02T02:29:31.966Z,99.99
2023-04-02T02:30:32.008Z,99.99
2023-04-02T02:31:31.965Z,99.99
2023-04-02T02:32:31.941Z,99.99
2023-04-02T02:33:31.909Z,99.99
2023-04-02T02:34:31.920Z,99.99
2023-04-02T02:35:31.952Z,99.99
2023-04-02T02:36:31.888Z,99.99
2023-04-02T02:37:31.880Z,99.99
2023-04-02T02:38:31.876Z,99.99
2023-04-02T02:39:31.857Z,99.99
2023-04-02T02:40:31.890Z,99.99
2023-04-02T02:41:31.836Z,99.99
2023-04-02T02:42:31.837Z,99.99
2023-04-02T02:43:31.806Z,99.99
2023-04-02T02:44:31.791Z,99.99
2023-04-02T02:45:31.841Z,99.99
2023-04-02T02:46:31.827Z,99.99
2023-04-02T02:47:31.816Z,99.99
2023-04-02T02:48:31.735Z,99.99
2023-04-02T02:49:31.723Z,99.99
2023-04-02T02:50:31.804Z,99.99
2023-04-02T02:51:31.710Z,99.99
2023-04-02T02:52:31.702Z,99.99
2023-04-02T02:53:31.688Z,99.99
2023-04-02T02:54:31.684Z,99.99
2023-04-02T02:55:31.740Z,99.99
2023-04-02T02:56:31.692Z,99.99
2023-04-02T02:57:31.748Z,99.99
2023-04-02T02:58:31.636Z,99.99
2023-04-02T02:59:31.652Z,99.99
2023-04-02T03:00:31.653Z,99.99
2023-04-02T03:01:31.640Z,99.99
2023-04-02T03:02:31.653Z,99.99
2023-04-02T03:03:31.773Z,99.99
2023-04-02T03:04:31.557Z,99.99
2023-04-02T03:05:31.596Z,99.99
2023-04-02T03:06:31.539Z,99.99
2023-04-02T03:07:31.530Z,99.99
2023-04-02T03:08:31.528Z,99.99
2023-04-02T03:09:31.496Z,99.99
2023-04-02T03:10:31.528Z,99.99
2023-04-02T03:11:31.498Z,99.99
2023-04-02T03:12:31.530Z,99.99
2023-04-02T03:13:31.489Z,99.99
2023-04-02T03:14:31.442Z,99.99
2023-04-02T03:15:31.505Z,99.99
2023-04-02T03:16:31.423Z,99.99
2023-04-02T03:17:31.444Z,99.99
2023-04-02T03:18:31.394Z,99.99
2023-04-02T03:19:31.377Z,99.99
2023-04-02T03:20:31.478Z,99.99
2023-04-02T03:21:31.371Z,99.99
2023-04-02T03:22:31.356Z,99.99
2023-04-02T03:23:31.346Z,99.99
2023-04-02T03:24:31.349Z,99.99
2023-04-02T03:25:31.370Z,99.99
2023-04-02T03:26:31.313Z,99.99
2023-04-02T03:27:31.316Z,99.99
2023-04-02T03:28:31.272Z,99.99
2023-04-02T03:29:31.322Z,99.99
2023-04-02T03:30:31.315Z,99.99
2023-04-02T03:31:31.300Z,99.99
2023-04-02T03:32:31.289Z,99.99
2023-04-02T03:33:31.241Z,99.99
2023-04-02T03:34:31.197Z,99.99
2023-04-02T03:35:31.251Z,99.99
2023-04-02T03:36:31.188Z,99.99
2023-04-02T03:37:31.186Z,99.99
2023-04-02T03:38:31.168Z,99.99
2023-04-02T03:39:31.167Z,99.99
2023-04-02T03:40:31.198Z,99.99
2023-04-02T03:41:31.136Z,99.99
2023-04-02T03:42:31.130Z,99.99
2023-04-02T03:43:31.108Z,99.99
2023-04-02T03:44:31.114Z,99.99
2023-04-02T03:45:31.139Z,99.99
2023-04-02T03:46:31.099Z,99.99
2023-04-02T03:47:31.120Z,99.99
2023-04-02T03:48:31.048Z,99.99
2023-04-02T03:49:31.045Z,99.99
2023-04-02T03:50:31.094Z,99.99
2023-04-02T03:51:31.025Z,99.99
2023-04-02T03:52:31.018Z,99.99
2023-04-02T03:53:31.012Z,99.99
2023-04-02T03:54:30.979Z,99.99
2023-04-02T03:55:31.018Z,99.99
2023-04-02T03:56:30.964Z,99.99
2023-04-02T03:57:31.015Z,99.99
2023-04-02T03:58:30.944Z,99.99
2023-04-02T03:59:30.966Z,99.99
2023-04-02T04:00:30.966Z,99.99
2023-04-02T04:01:30.902Z,99.99
2023-04-02T04:02:30.970Z,99.99
2023-04-02T04:03:30.897Z,99.99
2023-04-02T04:04:30.950Z,99.99
2023-04-02T04:05:30.907Z,99.99
2023-04-02T04:06:30.854Z,99.99
2023-04-02T04:07:30.834Z,99.99
2023-04-02T04:08:30.830Z,99.99
2023-04-02T04:09:30.811Z,99.99
2023-04-02T04:10:30.848Z,99.99
2023-04-02T04:11:30.828Z,99.99
2023-04-02T04:12:30.789Z,99.99
2023-04-02T04:13:30.764Z,99.99
2023-04-02T04:14:30.767Z,99.99
2023-04-02T04:15:30.780Z,99.99
2023-04-02T04:16:30.762Z,99.99
2023-04-02T04:17:30.752Z,99.99
2023-04-02T04:18:30.718Z,99.99
2023-04-02T04:19:30.707Z,99.99
2023-04-02T04:20:30.729Z,99.99
2023-04-02T04:21:30.692Z,99.99
2023-04-02T04:22:30.716Z,99.99
2023-04-02T04:23:30.724Z,99.99
2023-04-02T04:24:30.639Z,99.99
2023-04-02T04:25:30.722Z,99.99
2023-04-02T04:26:30.623Z,99.99
2023-04-02T04:27:30.597Z,99.99
2023-04-02T04:28:30.608Z,99.99
2023-04-02T04:29:30.597Z,99.99
2023-04-02T04:30:30.619Z,99.99
2023-04-02T04:31:30.611Z,99.99
2023-04-02T04:32:30.581Z,99.99
2023-04-02T04:33:30.539Z,99.99
2023-04-02T04:34:30.539Z,99.99
2023-04-02T04:35:30.609Z,99.99
2023-04-02T04:36:30.508Z,99.99
2023-04-02T04:37:30.488Z,99.99
2023-04-02T04:38:30.487Z,99.99
2023-04-02T04:39:30.470Z,99.99
2023-04-02T04:40:30.516Z,99.99
2023-04-02T04:41:30.457Z,99.99
2023-04-02T04:42:30.452Z,99.99
2023-04-02T04:43:30.436Z,99.99
2023-04-02T04:44:30.434Z,99.99
2023-04-02T04:45:30.455Z,99.85
2023-04-02T04:46:30.487Z,99.64
2023-04-02T04:47:30.408Z,99.95
2023-04-02T04:48:30.376Z,99.95
2023-04-02T04:49:30.365Z,99.99
2023-04-02T04:50:30.386Z,99.99
2023-04-02T04:51:30.334Z,99.99
2023-04-02T04:52:30.324Z,99.95
2023-04-02T04:53:30.321Z,99.64
2023-04-02T04:54:30.306Z,99.99
2023-04-02T04:55:30.347Z,99.99
2023-04-02T04:56:30.287Z,99.99
2023-04-02T04:57:30.309Z,99.99
2023-04-02T04:58:30.259Z,99.99
2023-04-02T04:59:30.274Z,99.99
2023-04-02T05:00:30.303Z,99.99
2023-04-02T05:01:30.274Z,99.99
2023-04-02T05:02:30.286Z,99.99
2023-04-02T05:03:30.233Z,99.99
2023-04-02T05:04:30.324Z,99.99
2023-04-02T05:05:30.223Z,99.64
2023-04-02T05:06:30.170Z,99.99
2023-04-02T05:07:30.175Z,99.99
2023-04-02T05:08:30.145Z,99.64
2023-04-02T05:09:30.150Z,99.95
2023-04-02T05:10:30.194Z,99.95
2023-04-02T05:11:30.117Z,99.54
2023-04-02T05:12:30.081Z,99.33
2023-04-02T05:13:30.070Z,99.33
2023-04-02T05:14:30.082Z,99.85
2023-04-02T05:15:30.149Z,99.99
2023-04-02T05:16:30.127Z,99.95
2023-04-02T05:17:30.069Z,99.74
2023-04-02T05:18:30.030Z,99.99
2023-04-02T05:19:30.020Z,99.99
2023-04-02T05:20:30.059Z,99.99
2023-04-02T05:21:30.003Z,99.64
2023-04-02T05:22:29.980Z,99.74
2023-04-02T05:23:29.966Z,99.95
2023-04-02T05:24:29.970Z,99.33
2023-04-02T05:25:29.957Z,99.54
2023-04-02T05:26:29.996Z,99.54
2023-04-02T05:27:29.934Z,99.02
2023-04-02T05:28:29.930Z,99.12
2023-04-02T05:29:29.911Z,99.02
2023-04-02T05:30:29.942Z,99.43
2023-04-02T05:31:29.990Z,99.85
2023-04-02T05:32:29.874Z,99.43
2023-04-02T05:33:29.891Z,99.02
2023-04-02T05:34:29.857Z,99.54
2023-04-02T05:35:29.858Z,98.60
2023-04-02T05:36:29.882Z,99.02
2023-04-02T05:37:29.831Z,98.91
2023-04-02T05:38:29.805Z,99.12
2023-04-02T05:39:29.778Z,99.43
2023-04-02T05:40:29.776Z,99.02
2023-04-02T05:41:29.800Z,99.12
2023-04-02T05:42:29.767Z,98.60
2023-04-02T05:43:29.750Z,98.39
2023-04-02T05:44:29.746Z,99.02
2023-04-02T05:45:29.726Z,98.50
2023-04-02T05:46:29.853Z,98.71
2023-04-02T05:47:29.751Z,98.29
2023-04-02T05:48:29.691Z,98.08
2023-04-02T05:49:29.689Z,98.08
2023-04-02T05:50:29.686Z,98.91
2023-04-02T05:51:29.711Z,98.71
2023-04-02T05:52:29.636Z,99.02
2023-04-02T05:53:29.626Z,98.50
2023-04-02T05:54:29.610Z,97.67
2023-04-02T05:55:29.611Z,97.77
2023-04-02T05:56:29.656Z,98.60
2023-04-02T05:57:42.712Z,98.50
2023-04-02T05:58:36.169Z,97.98
2023-04-02T05:59:30.562Z,97.25
2023-04-02T06:00:29.641Z,97.35
2023-04-02T06:01:29.572Z,97.14
2023-04-02T06:02:29.702Z,97.88
2023-04-02T06:03:29.582Z,97.98
2023-04-02T06:04:29.509Z,97.67
2023-04-02T06:05:29.474Z,97.35
2023-04-02T06:06:29.511Z,97.56
2023-04-02T06:07:29.475Z,98.29
2023-04-02T06:08:29.451Z,96.94
2023-04-02T06:09:29.443Z,97.35
2023-04-02T06:10:29.459Z,96.42
2023-04-02T06:11:29.473Z,97.04
2023-04-02T06:12:29.405Z,97.14
2023-04-02T06:13:29.399Z,96.11
2023-04-02T06:14:29.390Z,95.69
2023-04-02T06:15:29.379Z,95.90
2023-04-02T06:16:29.483Z,95.28
2023-04-02T06:17:29.380Z,95.69
2023-04-02T06:18:29.340Z,95.69
2023-04-02T06:19:29.317Z,95.17
2023-04-02T06:20:29.400Z,95.90
2023-04-02T06:21:29.340Z,95.69
2023-04-02T06:22:29.301Z,94.96
2023-04-02T06:23:29.292Z,94.65
2023-04-02T06:24:29.273Z,94.76
2023-04-02T06:25:29.278Z,95.79
2023-04-02T06:26:29.299Z,95.17
2023-04-02T06:27:29.229Z,94.86
2023-04-02T06:28:29.230Z,95.07
2023-04-02T06:29:29.208Z,95.90
2023-04-02T06:30:29.200Z,96.31
2023-04-02T06:31:29.250Z,96.31
2023-04-02T06:32:29.202Z,95.59
2023-04-02T06:33:29.172Z,95.59
2023-04-02T06:34:29.151Z,95.69
2023-04-02T06:35:29.141Z,95.69
2023-04-02T06:36:29.192Z,95.28
2023-04-02T06:37:29.154Z,95.59
2023-04-02T06:38:29.122Z,94.76
2023-04-02T06:39:29.140Z,94.55
2023-04-02T06:40:29.127Z,93.20
2023-04-02T06:41:29.180Z,92.78
2023-04-02T06:42:29.085Z,92.94
2023-04-02T06:43:29.061Z,93.26
2023-04-02T06:44:29.071Z,93.16
2023-04-02T06:45:29.047Z,92.94
2023-04-02T06:46:29.097Z,93.05
2023-04-02T06:47:29.052Z,93.26
2023-04-02T06:48:29.007Z,92.43
2023-04-02T06:49:28.984Z,93.16
2023-04-02T06:50:28.988Z,92.32
2023-04-02T06:51:29.039Z,92.01
2023-04-02T06:52:28.959Z,92.53
2023-04-02T06:53:28.939Z,92.32
2023-04-02T06:54:28.941Z,92.94
2023-04-02T06:55:29.013Z,93.26
2023-04-02T06:56:28.962Z,92.94
2023-04-02T06:57:28.916Z,92.84
2023-04-02T06:58:28.889Z,93.05
2023-04-02T06:59:28.888Z,93.47
2023-04-02T07:00:28.869Z,93.16
2023-04-02T07:01:28.932Z,92.74
2023-04-02T07:02:28.890Z,92.01
2023-04-02T07:03:28.826Z,92.74
2023-04-02T07:04:28.823Z,92.94
2023-04-02T07:05:28.811Z,92.43
2023-04-02T07:06:28.854Z,92.32
2023-04-02T07:07:28.777Z,93.05
2023-04-02T07:08:28.772Z,93.05
2023-04-02T07:09:28.770Z,93.16
2023-04-02T07:10:28.752Z,93.68
2023-04-02T07:11:28.778Z,93.47
2023-04-02T07:12:28.724Z,93.12
2023-04-02T07:13:28.709Z,93.53
2023-04-02T07:14:28.701Z,93.74
2023-04-02T07:15:28.699Z,93.84
2023-04-02T07:16:28.794Z,93.53
2023-04-02T07:17:28.745Z,92.69
2023-04-02T07:18:28.660Z,93.01
2023-04-02T07:19:28.640Z,93.32
2023-04-02T07:20:28.649Z,93.22
2023-04-02T07:21:28.681Z,92.90
2023-04-02T07:22:28.631Z,93.01
2023-04-02T07:23:28.637Z,93.22
2023-04-02T07:24:28.586Z,93.12
2023-04-02T07:25:28.594Z,92.49
2023-04-02T07:26:28.621Z,93.01
2023-04-02T07:27:28.575Z,91.86
2023-04-02T07:28:28.586Z,91.24
2023-04-02T07:29:28.627Z,92.07
2023-04-02T07:30:28.549Z,91.66
2023-04-02T07:31:28.727Z,92.38
2023-04-02T07:32:28.648Z,92.59
2023-04-02T07:33:28.563Z,92.14
2023-04-02T07:34:28.657Z,92.14
2023-04-02T07:35:28.464Z,91.93
2023-04-02T07:36:28.569Z,91.10
2023-04-02T07:37:28.453Z,90.27
2023-04-02T07:38:28.441Z,90.58
2023-04-02T07:39:28.425Z,90.58
2023-04-02T07:40:28.408Z,90.79
2023-04-02T07:41:28.434Z,91.31
2023-04-02T07:42:28.392Z,91.72
2023-04-02T07:43:28.384Z,91.58
2023-04-02T07:44:28.391Z,91.16
2023-04-02T07:45:28.373Z,90.54
2023-04-02T07:46:28.442Z,91.37
2023-04-02T07:47:28.380Z,90.02
2023-04-02T07:48:28.345Z,90.23
2023-04-02T07:49:28.297Z,90.64
2023-04-02T07:50:28.336Z,90.85
2023-04-02T07:51:28.306Z,91.16
2023-04-02T07:52:28.321Z,90.29
2023-04-02T07:53:28.273Z,90.39
2023-04-02T07:54:28.264Z,90.29
2023-04-02T07:55:28.246Z,89.04
2023-04-02T07:56:28.232Z,89.56
2023-04-02T07:57:28.292Z,90.70
2023-04-02T07:58:28.192Z,90.29
2023-04-02T07:59:28.173Z,90.87
2023-04-02T08:00:28.180Z,90.14
2023-04-02T08:01:28.176Z,90.04
2023-04-02T08:02:28.306Z,88.94
2023-04-02T08:03:28.218Z,90.29
2023-04-02T08:04:28.153Z,89.98
2023-04-02T08:05:28.120Z,89.46
2023-04-02T08:06:28.123Z,88.94
2023-04-02T08:07:28.130Z,90.08
2023-04-02T08:08:28.098Z,89.56
2023-04-02T08:09:28.113Z,89.46
2023-04-02T08:10:28.071Z,89.77
2023-04-02T08:11:29.669Z,90.60
2023-04-02T08:12:28.082Z,89.98
2023-04-02T08:13:28.041Z,89.77
2023-04-02T08:14:28.023Z,89.67
2023-04-02T08:15:28.014Z,89.56
2023-04-02T08:16:28.028Z,90.08
2023-04-02T08:17:28.077Z,90.87
2023-04-02T08:18:27.990Z,90.14
2023-04-02T08:19:27.972Z,89.42
2023-04-02T08:20:27.944Z,89.52
2023-04-02T08:21:27.985Z,88.39
2023-04-02T08:22:27.980Z,88.18
2023-04-02T08:23:27.914Z,89.62
2023-04-02T08:24:27.903Z,88.45
2023-04-02T08:25:27.897Z,88.76
2023-04-02T08:26:27.874Z,88.24
2023-04-02T08:27:27.918Z,88.51
2023-04-02T08:28:27.870Z,88.51
2023-04-02T08:29:27.869Z,88.26
2023-04-02T08:30:27.851Z,86.85
2023-04-02T08:31:27.976Z,86.33
2023-04-02T08:32:27.871Z,86.68
2023-04-02T08:33:27.858Z,87.30
2023-04-02T08:34:27.790Z,87.41
2023-04-02T08:35:27.797Z,89.03
2023-04-02T08:36:27.785Z,86.89
2023-04-02T08:37:27.813Z,87.14
2023-04-02T08:38:27.765Z,87.76
2023-04-02T08:39:27.742Z,87.82
2023-04-02T08:40:27.735Z,87.62
2023-04-02T08:41:27.832Z,86.83
2023-04-02T08:42:27.747Z,86.93
2023-04-02T08:43:27.767Z,87.14
2023-04-02T08:44:27.692Z,87.93
2023-04-02T08:45:27.682Z,86.79
2023-04-02T08:46:27.708Z,86.79
2023-04-02T08:47:27.699Z,87.72
2023-04-02T08:48:27.633Z,86.89
2023-04-02T08:49:27.636Z,87.72
2023-04-02T08:50:27.629Z,87.10
2023-04-02T08:51:27.586Z,87.10
2023-04-02T08:52:27.620Z,87.10
2023-04-02T08:53:27.586Z,87.47
2023-04-02T08:54:28.093Z,86.85
2023-04-02T08:55:27.572Z,86.96
2023-04-02T08:56:27.554Z,86.33
2023-04-02T08:57:27.649Z,85.82
2023-04-02T08:58:27.534Z,86.44
2023-04-02T08:59:27.567Z,86.33
2023-04-02T09:00:27.508Z,86.44
2023-04-02T09:01:27.570Z,86.58
2023-04-02T09:02:27.545Z,87.06
2023-04-02T09:03:27.667Z,85.82
2023-04-02T09:04:27.482Z,86.33
2023-04-02T09:05:27.448Z,85.30
2023-04-02T09:06:27.424Z,85.50
2023-04-02T09:07:27.475Z,84.99
2023-04-02T09:08:27.412Z,85.57
2023-04-02T09:09:27.395Z,85.36
2023-04-02T09:10:27.397Z,84.43
2023-04-02T09:11:27.473Z,83.33
2023-04-02T09:12:27.413Z,84.84
2023-04-02T09:13:27.354Z,84.12
2023-04-02T09:14:27.370Z,83.71
2023-04-02T09:15:27.322Z,83.61
2023-04-02T09:16:27.407Z,83.67
2023-04-02T09:17:27.376Z,83.05
2023-04-02T09:18:27.323Z,83.22
2023-04-02T09:19:27.267Z,83.25
2023-04-02T09:20:27.255Z,83.81
2023-04-02T09:21:27.251Z,84.84
2023-04-02T09:22:27.278Z,85.26
2023-04-02T09:23:27.227Z,84.64
2023-04-02T09:24:27.214Z,85.88
2023-04-02T09:25:27.230Z,86.40
2023-04-02T09:26:27.218Z,85.57
2023-04-02T09:27:27.232Z,85.94
2023-04-02T09:28:27.194Z,83.46
2023-04-02T09:29:27.167Z,84.19
2023-04-02T09:30:27.136Z,84.22
2023-04-02T09:31:27.170Z,85.22
2023-04-02T09:32:27.183Z,83.19
2023-04-02T09:33:27.117Z,84.43
2023-04-02T09:34:27.105Z,83.91
2023-04-02T09:35:27.280Z,84.16
2023-04-02T09:36:27.129Z,85.09
2023-04-02T09:37:27.142Z,85.19
2023-04-02T09:38:27.054Z,83.75
2023-04-02T09:39:27.052Z,85.50
2023-04-02T09:40:27.054Z,84.06
2023-04-02T09:41:27.038Z,85.09
2023-04-02T09:42:27.072Z,85.47
2023-04-02T09:43:27.010Z,84.84
2023-04-02T09:44:26.994Z,84.43
2023-04-02T09:45:26.981Z,84.53
2023-04-02T09:46:26.983Z,84.12
2023-04-02T09:47:27.035Z,84.06
2023-04-02T09:48:26.945Z,84.64
2023-04-02T09:49:26.951Z,84.43
2023-04-02T09:50:26.917Z,83.81
2023-04-02T09:51:26.933Z,83.09
2023-04-02T09:52:26.930Z,83.71
2023-04-02T09:53:26.896Z,84.08
2023-04-02T09:54:26.892Z,85.28
2023-04-02T09:55:26.874Z,84.45
2023-04-02T09:56:26.852Z,82.80
2023-04-02T09:57:26.926Z,83.18
2023-04-02T09:58:26.815Z,82.56
2023-04-02T09:59:26.835Z,81.52
2023-04-02T10:00:41.572Z,82.50
2023-04-02T10:01:27.872Z,84.25
2023-04-02T10:02:26.875Z,83.49
2023-04-02T10:03:26.772Z,82.35
2023-04-02T10:04:26.826Z,81.46
2023-04-02T10:05:39.306Z,81.67
2023-04-02T10:06:27.725Z,81.67
2023-04-02T10:07:26.791Z,83.05
2023-04-02T10:08:26.713Z,83.56
2023-04-02T10:09:26.708Z,83.77
2023-04-02T10:10:26.694Z,83.05
2023-04-02T10:11:30.914Z,83.15
2023-04-02T10:12:27.717Z,83.61
2023-04-02T10:13:26.654Z,83.98
2023-04-02T10:14:26.658Z,84.08
2023-04-02T10:15:26.681Z,83.25
2023-04-02T10:16:27.189Z,81.60
2023-04-02T10:17:26.706Z,81.39
2023-04-02T10:18:26.620Z,82.01
2023-04-02T10:19:26.606Z,81.39
2023-04-02T10:20:26.592Z,80.88
2023-04-02T10:21:26.588Z,80.77
2023-04-02T10:22:26.606Z,81.19
2023-04-02T10:23:26.556Z,81.91
2023-04-02T10:24:26.537Z,80.88
2023-04-02T10:25:26.529Z,80.88
2023-04-02T10:26:26.527Z,81.05
2023-04-02T10:27:26.564Z,80.15
2023-04-02T10:28:26.476Z,80.46
2023-04-02T10:29:26.482Z,81.60
2023-04-02T10:30:26.483Z,80.94
2023-04-02T10:31:26.500Z,81.98
2023-04-02T10:32:26.558Z,80.77
2023-04-02T10:33:26.470Z,81.09
2023-04-02T10:34:26.420Z,82.01
2023-04-02T10:35:26.456Z,80.67
2023-04-02T10:36:26.404Z,81.43
2023-04-02T10:37:26.449Z,81.95
2023-04-02T10:38:26.371Z,81.68
2023-04-02T10:39:26.355Z,82.92
2023-04-02T10:40:26.345Z,82.46
2023-04-02T10:41:26.351Z,82.88
2023-04-02T10:42:26.331Z,81.88
2023-04-02T10:43:26.388Z,82.88
2023-04-02T10:44:26.346Z,82.78
2023-04-02T10:45:26.301Z,83.25
2023-04-02T10:46:26.324Z,82.74
2023-04-02T10:47:26.287Z,81.74
2023-04-02T10:48:26.321Z,82.05
2023-04-02T10:49:26.339Z,82.15
2023-04-02T10:50:26.251Z,81.43
2023-04-02T10:51:26.227Z,82.12
2023-04-02T10:52:26.222Z,81.29
2023-04-02T10:53:26.268Z,80.63
2023-04-02T10:54:26.193Z,79.87
2023-04-02T10:55:26.193Z,79.94
2023-04-02T10:56:26.175Z,78.59
2023-04-02T10:57:26.236Z,78.08
2023-04-02T10:58:26.228Z,79.32
2023-04-02T10:59:26.194Z,79.22
2023-04-02T11:00:26.111Z,79.59
2023-04-02T11:01:26.146Z,78.25
2023-04-02T11:02:26.230Z,78.63
2023-04-02T11:03:26.275Z,78.49
2023-04-02T11:04:26.086Z,77.56
2023-04-02T11:05:26.074Z,77.59
2023-04-02T11:06:26.060Z,78.94
2023-04-02T11:07:26.041Z,78.38
2023-04-02T11:08:26.092Z,76.63
2023-04-02T11:09:26.009Z,76.63
2023-04-02T11:10:26.033Z,77.39
2023-04-02T11:11:25.999Z,78.14
2023-04-02T11:12:26.001Z,78.42
2023-04-02T11:13:26.029Z,79.41
2023-04-02T11:14:25.959Z,76.53
2023-04-02T11:15:25.943Z,77.25
2023-04-02T11:16:25.966Z,77.45
2023-04-02T11:17:26.006Z,77.28
2023-04-02T11:18:26.009Z,77.70
2023-04-02T11:19:25.940Z,77.59
2023-04-02T11:20:25.912Z,79.45
2023-04-02T11:21:25.901Z,76.90
2023-04-02T11:22:25.872Z,78.05
2023-04-02T11:23:25.922Z,77.87
2023-04-02T11:24:25.874Z,79.11
2023-04-02T11:25:25.841Z,77.81
2023-04-02T11:26:25.806Z,79.94
2023-04-02T11:27:25.822Z,78.91
2023-04-02T11:28:25.866Z,79.11
2023-04-02T11:29:25.780Z,79.69
2023-04-02T11:30:25.780Z,79.59
2023-04-02T11:31:25.814Z,78.14
2023-04-02T11:32:25.791Z,79.08
2023-04-02T11:33:35.843Z,78.77
2023-04-02T11:34:26.760Z,78.56
2023-04-02T11:35:25.712Z,79.01
2023-04-02T11:36:25.755Z,79.28
2023-04-02T11:37:25.707Z,78.87
2023-04-02T11:38:25.761Z,78.77
2023-04-02T11:39:25.697Z,77.84
2023-04-02T11:40:25.660Z,78.25
2023-04-02T11:41:25.654Z,78.18
2023-04-02T11:42:25.651Z,78.49
2023-04-02T11:43:25.680Z,78.28
2023-04-02T11:44:25.622Z,79.11
2023-04-02T11:45:25.612Z,79.11
2023-04-02T11:46:25.641Z,78.49
2023-04-02T11:47:25.647Z,78.84
2023-04-02T11:48:25.612Z,78.74
2023-04-02T11:49:25.581Z,79.15
2023-04-02T11:50:25.559Z,80.43
2023-04-02T11:51:25.554Z,80.39
2023-04-02T11:52:25.530Z,79.87
2023-04-02T11:53:25.561Z,80.39
2023-04-02T11:54:25.485Z,79.15
2023-04-02T11:55:25.472Z,79.15
2023-04-02T11:56:25.467Z,80.39
2023-04-02T11:57:25.526Z,80.90
2023-04-02T11:58:25.513Z,80.80
2023-04-02T11:59:25.458Z,80.39
2023-04-02T12:00:25.448Z,80.60
2023-04-02T12:01:25.404Z,79.66
2023-04-02T12:02:25.602Z,80.18
2023-04-02T12:03:25.454Z,79.25
2023-04-02T12:04:25.373Z,79.87
2023-04-02T12:05:25.430Z,79.25
2023-04-02T12:06:25.355Z,79.15
2023-04-02T12:07:25.349Z,78.94
2023-04-02T12:08:25.408Z,79.56
2023-04-02T12:09:25.347Z,78.63
2023-04-02T12:10:25.322Z,78.11
2023-04-02T12:11:25.324Z,78.84
2023-04-02T12:12:25.306Z,79.01
2023-04-02T12:13:25.330Z,78.80
2023-04-02T12:14:25.277Z,77.87
2023-04-02T12:15:25.272Z,78.70
2023-04-02T12:16:25.263Z,79.42
2023-04-02T12:17:25.274Z,77.98
2023-04-02T12:18:25.265Z,78.80
2023-04-02T12:19:25.214Z,78.35
2023-04-02T12:20:25.189Z,77.25
2023-04-02T12:21:25.183Z,78.70
2023-04-02T12:22:25.174Z,77.42
2023-04-02T12:23:25.230Z,77.36
2023-04-02T12:24:25.163Z,77.36
2023-04-02T12:25:25.141Z,78.08
2023-04-02T12:26:25.129Z,78.08
2023-04-02T12:27:25.123Z,78.59
2023-04-02T12:28:25.158Z,78.18
2023-04-02T12:29:25.111Z,79.73
2023-04-02T12:30:25.073Z,79.69
2023-04-02T12:31:25.213Z,78.08
2023-04-02T12:32:25.954Z,78.39
2023-04-02T12:33:25.093Z,78.28
2023-04-02T12:34:25.060Z,78.08
2023-04-02T12:35:25.030Z,77.81
2023-04-02T12:36:25.011Z,78.22
2023-04-02T12:37:25.021Z,79.15
2023-04-02T12:38:25.042Z,80.39
2023-04-02T12:39:26.739Z,79.87
2023-04-02T12:40:24.956Z,79.73
2023-04-02T12:41:24.991Z,77.29
2023-04-02T12:42:24.950Z,77.87
2023-04-02T12:43:24.973Z,77.98
2023-04-02T12:44:24.935Z,77.25
2023-04-02T12:45:26.156Z,77.53
2023-04-02T12:46:24.914Z,77.11
2023-04-02T12:47:24.888Z,76.50
2023-04-02T12:48:24.918Z,75.67
2023-04-02T12:49:24.856Z,74.63
2023-04-02T12:50:24.951Z,74.74
2023-04-02T12:51:26.753Z,76.08
2023-04-02T12:52:24.823Z,75.67